Arch, New Mexico
Current Conditions -  °F | °C
As of 3:58 AM on Monday 20 Oct 2014 (Local Time) from KCVS Reporting Station
Clear Clear  
Wind Chill: 55°   Ceiling: Unl
Heat Index: 55°   Visibility: 10mi
Dew Point: 54°   Wind: 5mph
Humidity: 94%   Direction: 300°WNW
Pressure: 30.12"   Gusts: NA
Location:  34.1669°N, 103.266°W
Report Text: KCVS 200958Z AUTO 30004KT 10SM CLR 13/12 A3012 RMK AO2 SLP155
Loading
Personal Weather Stations






























Interactive Weather Map
Tropical Storm Tracking
New forecast layout! Learn more

10-Day Weather Forecast

Advertisements
Track Severe Weather on mobile